Utopia Creek, Alaska
Current Conditions -  °F | °C
As of 5:55 PM on Friday 21 Nov 2014 (Local Time) from PAIM Reporting Station
Clear Clear  
Wind Chill: -9°   Ceiling: Unl
Heat Index: 11°   Visibility: 10mi
Dew Point: -7°   Wind: 22mph
Humidity: 46%   Direction: 90°E
Pressure: 29.37"   Gusts: 46mph
Location:  65.99°N, 153.7°W
Report Text: PAIM 220255Z AUTO 09019G40KT 040V120 10SM CLR M12/M21 A2937 RMK AO2 PK WND 05044/0221 SLP979 T11191214 53005
Loading
Personal Weather Stations






























Interactive Weather Map New forecast layout! Learn more

10-Day Weather Forecast

Advertisements
Track Severe Weather on mobile